Time;durP1;ratioP1;P1;durP2;ratioP2;P2;SDS_P1;SDS_P2;PMS_P1;PMS_P2;Temp;Humidity;BMP_temperature;BMP_pressure;BME280_temperature;BME280_humidity;BME280_pressure;Samples;Min_cycle;Max_cycle;Signal;HPM_P1;HPM_P2
2022/03/24 00:00:38;;;;;;;28.43;17.57;;;6.00;99.90;;;;;;4974413;28;20204;-84
2022/03/24 00:03:08;;;;;;;24.93;16.80;;;5.90;99.90;;;;;;4974283;28;20177;-84
2022/03/24 00:05:35;;;;;;;24.40;16.27;;;5.90;99.90;;;;;;4978095;28;20266;-84
2022/03/24 00:08:01;;;;;;;25.23;17.00;;;5.90;99.90;;;;;;4978321;28;20196;-84
2022/03/24 00:10:27;;;;;;;28.27;16.40;;;5.80;99.90;;;;;;4979541;28;20180;-84
2022/03/24 00:12:55;;;;;;;32.13;17.17;;;5.70;99.90;;;;;;4978043;28;20635;-84
2022/03/24 00:15:21;;;;;;;26.47;16.90;;;5.60;99.90;;;;;;4994545;28;20268;-83
2022/03/24 00:17:47;;;;;;;27.00;17.47;;;5.60;99.90;;;;;;4979183;28;20173;-83
2022/03/24 00:20:13;;;;;;;29.17;16.43;;;5.50;99.90;;;;;;4994200;28;20177;-84
2022/03/24 00:22:39;;;;;;;26.77;15.87;;;5.40;99.90;;;;;;4994174;28;20676;-84
2022/03/24 00:25:06;;;;;;;24.47;16.10;;;5.30;99.90;;;;;;4979132;28;20215;-84
2022/03/24 00:27:31;;;;;;;26.27;15.93;;;5.30;99.90;;;;;;4994209;28;20612;-84
2022/03/24 00:29:57;;;;;;;24.63;16.83;;;5.20;99.90;;;;;;4994323;28;20204;-84
2022/03/24 00:32:23;;;;;;;29.63;17.13;;;5.10;99.90;;;;;;4978850;28;20234;-84
2022/03/24 00:34:49;;;;;;;30.00;17.20;;;5.00;99.90;;;;;;4983848;28;20282;-84
2022/03/24 00:37:14;;;;;;;26.40;17.00;;;5.00;99.90;;;;;;4978760;28;20168;-84
2022/03/24 00:39:40;;;;;;;26.53;16.63;;;5.10;99.90;;;;;;4978997;28;20191;-83
2022/03/24 00:42:09;;;;;;;26.23;16.67;;;5.10;99.90;;;;;;4977997;28;20195;-84
2022/03/24 00:44:36;;;;;;;30.90;17.73;;;5.10;99.90;;;;;;4978772;28;20204;-84
2022/03/24 00:47:03;;;;;;;25.67;16.03;;;5.10;99.90;;;;;;4978852;28;20520;-83
2022/03/24 00:49:29;;;;;;;27.70;17.10;;;5.10;99.90;;;;;;4978792;28;20176;-85
2022/03/24 00:51:55;;;;;;;27.20;16.83;;;4.90;99.90;;;;;;4993130;28;20240;-84
2022/03/24 00:54:21;;;;;;;25.27;16.17;;;4.80;99.90;;;;;;4993549;28;20216;-83
2022/03/24 00:56:47;;;;;;;28.00;16.63;;;4.80;99.90;;;;;;4978658;28;20173;-84
2022/03/24 00:59:13;;;;;;;26.30;16.47;;;4.80;99.90;;;;;;4993696;28;20276;-84
2022/03/24 01:01:39;;;;;;;27.70;15.70;;;4.90;99.90;;;;;;4978673;28;20901;-84
2022/03/24 01:04:09;;;;;;;29.97;16.53;;;4.80;99.90;;;;;;4978483;28;20193;-84
2022/03/24 01:06:35;;;;;;;27.27;16.53;;;4.80;99.90;;;;;;4978347;28;20173;-84
2022/03/24 01:09:03;;;;;;;24.97;16.27;;;4.80;99.90;;;;;;4978473;28;20633;-84
2022/03/24 01:14:07;;;;;;;22.17;14.90;;;4.80;99.90;;;;;;5315400;22;20713;-83
2022/03/24 01:16:35;;;;;;;25.93;15.57;;;4.60;99.90;;;;;;4975905;28;20184;-84
2022/03/24 01:19:02;;;;;;;24.90;15.73;;;4.60;99.90;;;;;;4976983;28;20247;-84
2022/03/24 01:21:27;;;;;;;27.00;16.80;;;4.70;99.90;;;;;;4976747;28;20188;-84
2022/03/24 01:23:53;;;;;;;27.47;16.53;;;4.60;99.90;;;;;;4978250;28;20180;-84
2022/03/24 01:26:19;;;;;;;28.03;16.07;;;4.70;99.90;;;;;;4978254;28;20183;-84
2022/03/24 01:28:44;;;;;;;29.70;16.07;;;4.60;99.90;;;;;;4976752;28;20613;-84
2022/03/24 01:31:11;;;;;;;29.37;16.50;;;4.50;99.90;;;;;;4976867;28;20525;-84
2022/03/24 01:33:39;;;;;;;27.67;17.60;;;4.50;99.90;;;;;;4977896;28;20183;-84
2022/03/24 01:36:10;;;;;;;29.27;16.40;;;4.50;99.90;;;;;;4976385;28;20549;-84
2022/03/24 01:38:36;;;;;;;26.60;16.57;;;4.40;99.90;;;;;;4977930;28;20211;-84
2022/03/24 01:41:02;;;;;;;30.60;16.93;;;4.40;99.90;;;;;;4977782;28;20263;-84
2022/03/24 01:43:29;;;;;;;29.83;16.90;;;4.50;99.90;;;;;;4976045;28;20189;-84
2022/03/24 01:45:55;;;;;;;29.03;17.27;;;4.30;99.90;;;;;;4976629;28;20212;-84
2022/03/24 01:48:21;;;;;;;24.23;17.20;;;4.30;99.90;;;;;;4976546;28;20236;-84
2022/03/24 01:50:46;;;;;;;27.77;16.27;;;4.00;99.90;;;;;;4977476;28;20598;-84
2022/03/24 01:53:12;;;;;;;24.93;16.90;;;4.00;99.90;;;;;;4976453;28;20230;-85
2022/03/24 01:55:39;;;;;;;26.80;16.83;;;3.90;99.90;;;;;;4977641;28;20185;-84
2022/03/24 01:58:05;;;;;;;29.87;17.30;;;3.90;99.90;;;;;;4977436;28;20222;-83
2022/03/24 02:00:31;;;;;;;26.27;16.27;;;3.80;99.90;;;;;;4976382;28;20184;-84
2022/03/24 02:03:01;;;;;;;24.60;16.23;;;3.80;99.90;;;;;;4976030;28;20267;-84
2022/03/24 02:05:33;;;;;;;26.50;16.87;;;3.80;99.90;;;;;;4976276;28;20204;-84
2022/03/24 02:08:03;;;;;;;28.87;16.63;;;3.80;99.90;;;;;;4976546;28;20622;-84
2022/03/24 02:10:32;;;;;;;27.50;16.50;;;3.70;99.90;;;;;;4975976;28;20250;-84
2022/03/24 02:12:58;;;;;;;24.27;15.77;;;3.70;99.90;;;;;;4977040;28;20234;-84
2022/03/24 02:15:27;;;;;;;29.57;16.40;;;3.80;99.90;;;;;;4977483;28;20496;-84
2022/03/24 02:17:54;;;;;;;26.63;16.40;;;3.80;99.90;;;;;;4976052;28;20200;-84
2022/03/24 02:20:21;;;;;;;24.63;16.50;;;3.80;99.90;;;;;;4977179;28;20175;-84
2022/03/24 02:22:51;;;;;;;26.73;16.17;;;3.70;99.90;;;;;;4975460;28;20618;-83
2022/03/24 02:25:17;;;;;;;28.27;17.00;;;3.50;99.90;;;;;;4976696;28;20204;-84
2022/03/24 02:27:47;;;;;;;25.07;16.77;;;3.50;99.90;;;;;;4975560;28;20174;-84
2022/03/24 02:30:13;;;;;;;30.03;17.10;;;3.50;99.90;;;;;;4991844;28;20187;-83
2022/03/24 02:32:39;;;;;;;28.07;16.90;;;3.60;99.90;;;;;;4975591;28;20186;-84
2022/03/24 02:35:05;;;;;;;26.10;16.63;;;3.60;99.90;;;;;;4975731;28;20183;-84
2022/03/24 02:37:30;;;;;;;26.07;16.03;;;3.50;99.90;;;;;;4976382;28;20168;-84
2022/03/24 02:39:58;;;;;;;24.77;16.47;;;3.50;99.90;;;;;;4975521;28;20191;-84
2022/03/24 02:42:29;;;;;;;30.77;16.10;;;3.50;99.90;;;;;;4976629;28;20195;-84
2022/03/24 02:45:02;;;;;;;26.53;15.97;;;3.40;99.90;;;;;;4975487;28;20216;-84
2022/03/24 02:47:28;;;;;;;30.80;15.97;;;3.50;99.90;;;;;;4975574;28;20617;-85
2022/03/24 02:49:56;;;;;;;27.63;16.27;;;3.40;99.90;;;;;;4975541;28;20233;-83
2022/03/24 02:52:21;;;;;;;28.90;17.20;;;3.40;99.90;;;;;;4976298;28;20194;-85
2022/03/24 02:54:48;;;;;;;27.60;16.37;;;3.30;99.90;;;;;;4976526;28;20171;-84
2022/03/24 02:57:14;;;;;;;29.33;17.00;;;3.20;99.90;;;;;;4975189;28;20184;-84
2022/03/24 02:59:40;;;;;;;29.23;17.03;;;3.10;99.90;;;;;;4976411;28;20180;-84
2022/03/24 03:02:13;;;;;;;29.63;18.03;;;3.00;99.90;;;;;;4976046;28;20206;-84
2022/03/24 03:04:40;;;;;;;30.70;17.87;;;2.90;99.90;;;;;;4975178;28;20230;-83
2022/03/24 03:07:06;;;;;;;30.47;17.13;;;2.70;99.90;;;;;;4975000;28;20175;-84
2022/03/24 03:09:33;;;;;;;30.70;18.23;;;2.70;99.90;;;;;;4976620;28;20229;-84
2022/03/24 03:11:59;;;;;;;32.83;18.60;;;2.50;99.90;;;;;;4975039;28;20189;-85
2022/03/24 03:14:27;;;;;;;29.23;18.10;;;2.50;99.90;;;;;;4975874;28;20313;-84
2022/03/24 03:16:53;;;;;;;30.90;17.80;;;2.50;99.90;;;;;;4975165;28;20180;-84
2022/03/24 03:19:19;;;;;;;31.30;18.10;;;2.50;99.90;;;;;;4975970;28;20184;-83
2022/03/24 03:21:50;;;;;;;29.80;18.07;;;2.50;99.90;;;;;;4975797;28;20174;-84
2022/03/24 03:24:17;;;;;;;28.63;16.90;;;2.40;99.90;;;;;;4974972;28;20209;-84
2022/03/24 03:26:44;;;;;;;29.37;17.87;;;2.30;99.90;;;;;;4976208;28;20181;-84
2022/03/24 03:29:10;;;;;;;28.77;17.83;;;2.40;99.90;;;;;;4974719;28;20177;-85
2022/03/24 03:31:36;;;;;;;33.07;18.83;;;2.40;99.90;;;;;;4975734;28;20260;-84
2022/03/24 03:34:03;;;;;;;30.50;18.57;;;2.40;99.90;;;;;;4974844;28;20189;-84
2022/03/24 03:36:30;;;;;;;34.33;19.57;;;2.30;99.90;;;;;;4975791;28;20184;-85
2022/03/24 03:38:56;;;;;;;30.77;20.00;;;2.20;99.90;;;;;;4975340;28;20172;-85
2022/03/24 03:41:22;;;;;;;31.07;18.97;;;2.10;99.90;;;;;;4975657;28;20177;-84
2022/03/24 03:43:49;;;;;;;30.93;19.33;;;2.10;99.90;;;;;;4974596;28;20224;-85
2022/03/24 03:46:16;;;;;;;33.17;19.63;;;2.00;99.90;;;;;;4975709;28;20193;-83
2022/03/24 03:48:42;;;;;;;25.87;17.27;;;2.10;99.90;;;;;;4974587;28;20180;-83
2022/03/24 03:51:08;;;;;;;32.47;18.77;;;2.20;99.90;;;;;;4974456;28;20484;-84
2022/03/24 03:53:35;;;;;;;26.33;16.67;;;2.30;99.90;;;;;;4974660;28;20185;-84
2022/03/24 03:56:02;;;;;;;26.57;17.23;;;2.30;99.90;;;;;;4975686;28;20251;-84
2022/03/24 03:58:28;;;;;;;30.83;17.60;;;2.40;99.90;;;;;;4974286;28;20225;-84
2022/03/24 04:00:57;;;;;;;34.00;18.10;;;2.40;99.90;;;;;;4975800;28;20177;-84
2022/03/24 04:03:28;;;;;;;28.57;17.40;;;2.40;99.90;;;;;;4974397;28;20204;-84
2022/03/24 04:06:06;;;;;;;26.30;17.03;;;2.30;99.90;;;;;;4975511;28;20216;-84
2022/03/24 04:08:32;;;;;;;33.47;17.57;;;2.40;99.90;;;;;;4975757;28;20199;-84
2022/03/24 04:11:00;;;;;;;32.40;17.87;;;2.40;99.90;;;;;;4990436;28;20251;-84
2022/03/24 04:13:27;;;;;;;30.33;19.03;;;2.40;99.90;;;;;;4974013;28;20324;-85
2022/03/24 04:15:54;;;;;;;27.87;18.13;;;2.40;99.90;;;;;;4975324;28;20173;-85
2022/03/24 04:18:22;;;;;;;27.57;18.80;;;2.40;99.90;;;;;;4974331;28;20208;-84
2022/03/24 04:20:48;;;;;;;31.67;18.37;;;2.30;99.90;;;;;;4975647;28;20604;-84
2022/03/24 04:23:14;;;;;;;30.83;18.40;;;2.30;99.90;;;;;;4974035;28;20192;-85
2022/03/24 04:25:40;;;;;;;33.03;18.40;;;2.30;99.90;;;;;;4974087;28;20213;-85
2022/03/24 04:28:06;;;;;;;30.77;18.07;;;2.40;99.90;;;;;;4975445;28;20165;-85
2022/03/24 04:30:33;;;;;;;29.80;18.33;;;2.30;99.90;;;;;;4974821;28;20267;-85
2022/03/24 04:32:59;;;;;;;28.30;17.47;;;2.30;99.90;;;;;;4975285;28;20169;-83
2022/03/24 04:35:26;;;;;;;33.53;18.10;;;2.30;99.90;;;;;;4975204;28;20495;-84
2022/03/24 04:37:52;;;;;;;29.67;18.33;;;2.30;99.90;;;;;;4975159;28;20297;-85
2022/03/24 04:40:19;;;;;;;30.50;19.20;;;2.30;99.90;;;;;;4975269;28;20216;-85
2022/03/24 04:42:47;;;;;;;34.03;19.93;;;2.30;99.90;;;;;;4975239;28;20186;-85
2022/03/24 04:45:13;;;;;;;31.33;18.33;;;2.30;99.90;;;;;;4975191;28;20206;-85
2022/03/24 04:47:40;;;;;;;35.83;19.80;;;2.30;99.90;;;;;;4975323;28;20221;-85
2022/03/24 04:50:07;;;;;;;30.63;18.97;;;2.30;99.90;;;;;;4975516;28;20620;-85
2022/03/24 04:52:33;;;;;;;33.03;19.37;;;2.40;99.90;;;;;;4978534;28;20256;-84
2022/03/24 04:55:00;;;;;;;34.93;20.37;;;2.40;99.90;;;;;;4978814;28;20210;-85
2022/03/24 04:57:26;;;;;;;32.17;20.47;;;2.30;99.90;;;;;;4978753;28;20615;-84
2022/03/24 04:59:53;;;;;;;33.60;19.67;;;2.20;99.90;;;;;;4978754;28;20256;-85
2022/03/24 05:02:19;;;;;;;29.20;18.07;;;2.20;99.90;;;;;;4977504;28;20186;-85
2022/03/24 05:04:45;;;;;;;28.57;18.03;;;2.00;99.90;;;;;;4978457;28;20236;-84
2022/03/24 05:07:11;;;;;;;30.77;19.03;;;2.10;99.90;;;;;;4978371;28;20186;-85
2022/03/24 05:09:38;;;;;;;29.67;18.00;;;2.00;99.90;;;;;;4977331;28;20192;-85
2022/03/24 05:12:05;;;;;;;32.10;18.90;;;2.00;99.90;;;;;;4978499;28;20188;-86
2022/03/24 05:14:31;;;;;;;29.03;18.20;;;2.10;99.90;;;;;;4978242;28;20224;-85
2022/03/24 05:16:58;;;;;;;32.93;18.93;;;2.20;99.90;;;;;;4977317;28;20192;-86
2022/03/24 05:19:24;;;;;;;29.70;17.97;;;2.10;99.90;;;;;;4993596;28;20173;-84
2022/03/24 05:21:50;;;;;;;31.30;19.17;;;2.10;99.90;;;;;;4978000;28;20634;-85
2022/03/24 05:24:16;;;;;;;32.70;18.43;;;2.10;99.90;;;;;;4978171;28;20212;-84
2022/03/24 05:26:43;;;;;;;26.60;16.80;;;2.10;99.90;;;;;;4979052;28;20204;-85
2022/03/24 05:29:09;;;;;;;32.17;18.13;;;2.00;99.90;;;;;;4978381;28;20582;-85
2022/03/24 05:31:35;;;;;;;26.90;17.43;;;2.10;99.90;;;;;;4977103;28;20207;-84
2022/03/24 05:34:01;;;;;;;31.87;17.80;;;2.00;99.90;;;;;;4976961;28;20219;-85
2022/03/24 05:36:27;;;;;;;29.30;17.27;;;1.90;99.90;;;;;;4977961;28;20169;-85
2022/03/24 05:38:53;;;;;;;28.83;16.63;;;2.00;99.90;;;;;;4976910;28;20173;-84
2022/03/24 05:41:19;;;;;;;30.07;18.30;;;2.00;99.90;;;;;;4977813;28;20260;-82
2022/03/24 05:44:02;;;;;;;28.63;18.63;;;2.00;99.90;;;;;;4976970;28;20193;-85
2022/03/24 05:46:40;;;;;;;29.23;17.97;;;2.10;99.90;;;;;;4976785;28;20183;-85
2022/03/24 05:49:06;;;;;;;31.43;18.80;;;2.00;99.90;;;;;;4976722;28;20176;-85
2022/03/24 05:51:33;;;;;;;30.87;18.83;;;2.10;99.90;;;;;;4976576;28;20191;-85
2022/03/24 05:53:59;;;;;;;35.27;18.33;;;2.10;99.90;;;;;;4978099;28;20568;-85
2022/03/24 05:56:24;;;;;;;33.07;19.47;;;2.10;99.90;;;;;;4976883;28;20281;-85
2022/03/24 05:58:50;;;;;;;30.50;18.53;;;2.10;99.90;;;;;;4983021;28;20211;-85
2022/03/24 06:01:17;;;;;;;32.47;18.27;;;2.10;99.90;;;;;;5005667;28;20184;-84
2022/03/24 06:03:45;;;;;;;31.33;19.07;;;2.20;99.90;;;;;;4996266;28;20489;-85
2022/03/24 06:06:12;;;;;;;29.70;18.50;;;2.30;99.90;;;;;;4997005;28;20200;-85
2022/03/24 06:08:42;;;;;;;31.27;18.93;;;2.50;99.90;;;;;;4997100;28;20185;-85
2022/03/24 06:11:15;;;;;;;32.93;19.43;;;2.50;99.90;;;;;;4980818;28;20500;-87
2022/03/24 06:13:41;;;;;;;31.57;19.67;;;2.50;99.90;;;;;;4975826;28;20580;-84
2022/03/24 06:16:08;;;;;;;35.47;19.50;;;2.50;99.90;;;;;;4990122;28;20200;-85
2022/03/24 06:18:36;;;;;;;31.87;19.33;;;2.50;99.90;;;;;;4976284;28;20628;-86
2022/03/24 06:21:04;;;;;;;32.67;19.47;;;2.50;99.90;;;;;;4975999;28;20189;-87
2022/03/24 06:23:30;;;;;;;29.97;19.00;;;2.50;99.90;;;;;;4977036;28;20181;-86
2022/03/24 06:25:57;;;;;;;38.60;20.20;;;2.60;99.90;;;;;;4978268;28;20218;-87
2022/03/24 06:28:23;;;;;;;29.53;19.17;;;2.70;99.90;;;;;;4996465;28;20203;-86
2022/03/24 06:30:49;;;;;;;37.00;19.97;;;2.80;99.90;;;;;;5011611;28;20587;-88
2022/03/24 06:33:16;;;;;;;34.00;21.07;;;2.90;99.90;;;;;;4996516;28;20174;-86
2022/03/24 06:35:43;;;;;;;34.90;20.50;;;2.90;99.90;;;;;;4996301;28;20176;-85
2022/03/24 06:38:11;;;;;;;27.80;19.57;;;3.00;99.90;;;;;;4994997;28;20181;-86
2022/03/24 06:40:38;;;;;;;34.03;20.70;;;3.00;99.90;;;;;;4995285;28;20569;-88
2022/03/24 06:43:05;;;;;;;43.87;20.83;;;3.10;99.90;;;;;;4979123;28;20600;-86
2022/03/24 06:45:32;;;;;;;39.77;22.40;;;3.20;99.90;;;;;;4991541;28;20212;-86
2022/03/24 06:47:58;;;;;;;35.80;22.00;;;3.30;99.90;;;;;;4976677;28;20188;-85
2022/03/24 06:50:24;;;;;;;33.70;22.10;;;3.40;99.90;;;;;;4975315;28;20539;-84
2022/03/24 06:52:50;;;;;;;39.73;22.50;;;3.50;99.90;;;;;;4976466;28;20302;-84
2022/03/24 06:55:16;;;;;;;41.13;23.17;;;3.60;99.90;;;;;;4975326;28;20616;-84
2022/03/24 06:57:43;;;;;;;36.57;22.63;;;3.70;99.90;;;;;;4976297;28;20259;-84
2022/03/24 07:00:13;;;;;;;36.83;22.40;;;3.70;99.90;;;;;;4982172;28;20629;-84
2022/03/24 07:02:40;;;;;;;34.70;23.47;;;3.80;99.90;;;;;;4996206;28;20681;-86
2022/03/24 07:05:08;;;;;;;38.73;24.20;;;3.90;99.90;;;;;;4995886;28;20211;-85
2022/03/24 07:07:34;;;;;;;37.67;22.33;;;4.10;99.90;;;;;;4995738;28;20181;-86
2022/03/24 07:10:00;;;;;;;37.67;24.13;;;4.20;99.90;;;;;;4996000;28;20168;-86
2022/03/24 07:12:25;;;;;;;39.93;22.77;;;4.40;99.90;;;;;;4983558;28;20586;-85
2022/03/24 07:14:51;;;;;;;40.33;23.37;;;4.70;99.90;;;;;;4974439;28;20292;-85
2022/03/24 07:17:19;;;;;;;35.83;23.90;;;4.90;99.90;;;;;;4976169;28;20642;-84
2022/03/24 07:19:45;;;;;;;35.30;23.93;;;5.10;99.90;;;;;;4976367;28;20188;-84
2022/03/24 07:22:11;;;;;;;39.73;24.90;;;5.30;99.90;;;;;;4975437;28;20204;-83
2022/03/24 07:24:36;;;;;;;38.80;23.77;;;5.40;99.90;;;;;;4975477;28;20266;-83
2022/03/24 07:27:02;;;;;;;41.20;24.00;;;5.60;99.90;;;;;;4974419;28;20176;-84
2022/03/24 07:29:28;;;;;;;36.50;23.63;;;5.70;99.90;;;;;;4990831;28;20176;-85
2022/03/24 07:31:54;;;;;;;35.40;22.90;;;5.90;99.90;;;;;;4975842;28;20659;-85
2022/03/24 07:34:21;;;;;;;38.20;24.37;;;6.00;99.90;;;;;;4976054;28;20173;-85
2022/03/24 07:36:47;;;;;;;42.10;23.53;;;6.10;99.90;;;;;;4974470;28;20191;-84
2022/03/24 07:39:13;;;;;;;39.40;23.23;;;6.30;99.90;;;;;;4975671;28;20188;-85
2022/03/24 07:41:39;;;;;;;39.70;25.17;;;6.40;99.90;;;;;;4975394;28;20638;-86
2022/03/24 07:44:05;;;;;;;38.43;23.23;;;6.50;99.90;;;;;;4975548;28;20181;-84
2022/03/24 07:46:30;;;;;;;38.93;23.07;;;6.60;99.90;;;;;;4974390;28;20184;-84
2022/03/24 07:48:56;;;;;;;37.63;22.73;;;6.70;99.90;;;;;;4974410;28;20189;-85
2022/03/24 07:51:23;;;;;;;37.30;23.23;;;6.90;99.90;;;;;;4974179;28;20646;-84
2022/03/24 07:53:49;;;;;;;39.13;22.07;;;7.00;99.90;;;;;;4975489;28;20231;-84
2022/03/24 07:56:17;;;;;;;37.77;22.03;;;7.10;99.90;;;;;;4975562;28;20213;-86
2022/03/24 07:58:43;;;;;;;37.83;22.37;;;7.20;99.90;;;;;;4990798;28;20251;-86
2022/03/24 08:01:09;;;;;;;36.93;22.10;;;7.30;99.90;;;;;;4990697;28;20208;-85
2022/03/24 08:03:34;;;;;;;34.13;21.73;;;7.50;99.90;;;;;;4975466;28;20258;-86
2022/03/24 08:06:02;;;;;;;36.00;22.10;;;7.60;99.90;;;;;;4974181;28;20216;-85
2022/03/24 08:08:29;;;;;;;32.23;20.57;;;7.70;99.90;;;;;;4975220;28;20177;-84
2022/03/24 08:10:55;;;;;;;35.37;21.17;;;7.80;99.90;;;;;;4974436;28;20188;-84
2022/03/24 08:13:22;;;;;;;35.93;20.47;;;7.80;99.90;;;;;;4975118;28;20252;-85
2022/03/24 08:15:48;;;;;;;32.60;20.80;;;7.90;99.90;;;;;;4975267;28;20173;-84
2022/03/24 08:18:15;;;;;;;34.10;21.20;;;8.00;99.90;;;;;;4977588;28;20219;-84
2022/03/24 08:20:43;;;;;;;34.20;21.03;;;8.10;99.90;;;;;;4983964;28;20637;-85
2022/03/24 08:23:10;;;;;;;33.43;21.90;;;8.20;99.90;;;;;;4991087;28;20271;-84
2022/03/24 08:25:38;;;;;;;33.63;20.33;;;8.30;99.90;;;;;;4984024;28;20207;-84
2022/03/24 08:28:05;;;;;;;34.40;21.33;;;8.50;99.90;;;;;;4998131;28;20176;-85
2022/03/24 08:30:31;;;;;;;33.97;21.10;;;8.50;98.90;;;;;;4998135;28;20167;-84
2022/03/24 08:32:57;;;;;;;34.57;19.43;;;8.60;99.60;;;;;;4998427;28;20258;-86
2022/03/24 08:35:23;;;;;;;32.40;20.17;;;8.70;98.70;;;;;;4997441;28;20184;-84
2022/03/24 08:37:49;;;;;;;29.57;18.73;;;8.70;97.30;;;;;;4998145;28;20539;-85
2022/03/24 08:40:15;;;;;;;31.07;18.20;;;8.80;97.10;;;;;;4997237;28;20172;-85
2022/03/24 08:42:43;;;;;;;31.10;17.53;;;8.90;95.40;;;;;;4985316;28;20184;-84
2022/03/24 08:45:10;;;;;;;29.53;17.93;;;9.00;94.30;;;;;;4977580;28;20205;-85
2022/03/24 08:47:36;;;;;;;25.30;16.73;;;9.10;94.40;;;;;;4977540;28;20184;-84
2022/03/24 08:50:03;;;;;;;29.00;17.43;;;9.20;94.10;;;;;;4977551;28;20176;-84
2022/03/24 08:52:29;;;;;;;30.87;17.87;;;9.30;93.60;;;;;;4977963;28;20273;-85
2022/03/24 08:54:55;;;;;;;26.20;15.93;;;9.30;93.10;;;;;;4984643;28;20615;-84
2022/03/24 08:57:28;;;;;;;29.60;17.60;;;9.50;92.40;;;;;;4980508;28;20177;-85
2022/03/24 08:59:55;;;;;;;30.57;18.00;;;9.50;92.90;;;;;;4977529;28;20525;-84
2022/03/24 09:02:21;;;;;;;29.27;17.03;;;9.70;93.30;;;;;;4978199;28;20550;-84
2022/03/24 09:04:50;;;;;;;28.63;16.50;;;9.80;92.50;;;;;;4978415;28;20201;-84
2022/03/24 09:07:16;;;;;;;31.87;16.87;;;10.00;92.80;;;;;;4981307;28;20187;-85
2022/03/24 09:09:42;;;;;;;25.87;16.27;;;10.10;91.80;;;;;;4978369;28;20507;-85
2022/03/24 09:12:09;;;;;;;29.63;16.83;;;10.20;91.00;;;;;;4992853;28;20184;-84
2022/03/24 09:14:36;;;;;;;31.87;16.43;;;10.30;90.70;;;;;;4976830;28;20682;-85
2022/03/24 09:17:02;;;;;;;30.03;16.37;;;10.40;90.20;;;;;;4978184;28;20487;-83
2022/03/24 09:19:29;;;;;;;25.33;16.13;;;10.50;90.20;;;;;;4976678;28;20179;-84
2022/03/24 09:21:54;;;;;;;35.20;14.77;;;10.60;89.10;;;;;;4975990;28;20279;-84
2022/03/24 09:24:20;;;;;;;28.43;15.40;;;10.70;85.00;;;;;;4992984;28;20298;-83
2022/03/24 09:26:46;;;;;;;24.83;14.40;;;10.80;84.00;;;;;;4976589;28;20184;-84
2022/03/24 09:29:11;;;;;;;29.43;15.53;;;10.90;84.30;;;;;;4993107;28;20250;-84
2022/03/24 09:31:37;;;;;;;26.80;15.67;;;11.00;83.80;;;;;;4977648;28;20177;-84
2022/03/24 09:34:04;;;;;;;27.33;15.03;;;11.10;82.30;;;;;;4979030;28;20177;-84
2022/03/24 09:36:30;;;;;;;24.03;14.40;;;11.10;80.20;;;;;;4992088;28;20239;-84
2022/03/24 09:38:56;;;;;;;22.90;12.83;;;11.20;78.30;;;;;;4984362;28;20176;-84
2022/03/24 09:41:26;;;;;;;24.03;13.33;;;11.20;75.40;;;;;;4984015;28;20616;-84
2022/03/24 09:43:53;;;;;;;23.97;14.33;;;11.30;74.50;;;;;;4995752;28;20183;-84
2022/03/24 09:46:20;;;;;;;28.00;14.53;;;11.40;75.60;;;;;;4996470;28;20222;-84
2022/03/24 09:48:46;;;;;;;22.77;13.70;;;11.50;74.90;;;;;;5011985;28;20235;-84
2022/03/24 09:51:14;;;;;;;23.20;13.43;;;11.50;75.10;;;;;;4996969;28;20714;-83
2022/03/24 09:53:41;;;;;;;23.25;13.13;;;11.60;74.10;;;;;;4995474;28;20253;-83
2022/03/24 09:56:07;;;;;;;21.75;12.27;;;11.70;70.40;;;;;;5011874;28;20619;-83
2022/03/24 09:58:33;;;;;;;21.50;12.57;;;11.90;66.60;;;;;;5011689;28;20211;-83
2022/03/24 10:01:01;;;;;;;23.45;13.05;;;11.80;65.60;;;;;;4995320;28;20176;-84
2022/03/24 10:03:26;;;;;;;19.30;11.97;;;11.90;68.10;;;;;;5011444;28;20614;-83
2022/03/24 10:06:04;;;;;;;22.77;12.00;;;12.00;66.50;;;;;;5011614;28;20218;-82
2022/03/24 10:08:30;;;;;;;20.30;12.45;;;12.10;66.50;;;;;;4994717;28;20290;-83
2022/03/24 10:11:01;;;;;;;16.58;10.43;;;12.20;65.80;;;;;;4995161;28;20268;-83
2022/03/24 10:13:49;;;;;;;17.35;10.88;;;12.30;63.30;;;;;;4978643;28;20224;-82
2022/03/24 10:16:33;;;;;;;18.65;11.70;;;12.20;62.20;;;;;;4995078;28;20331;-83
2022/03/24 10:19:05;;;;;;;19.35;11.68;;;12.40;63.80;;;;;;5011471;28;20203;-83
2022/03/24 10:21:33;;;;;;;19.73;11.98;;;12.50;63.00;;;;;;5011531;28;20176;-83
2022/03/24 10:24:06;;;;;;;17.90;10.70;;;12.80;61.90;;;;;;4995798;28;20543;-82
2022/03/24 10:26:43;;;;;;;18.23;10.10;;;13.00;61.90;;;;;;4993050;28;20185;-83
2022/03/24 10:29:11;;;;;;;20.20;11.35;;;12.90;61.30;;;;;;5010085;28;20229;-83
2022/03/24 10:31:37;;;;;;;22.42;12.02;;;13.00;62.30;;;;;;4985451;28;20207;-84
2022/03/24 10:34:04;;;;;;;25.80;12.00;;;13.00;60.70;;;;;;4985108;28;20528;-84
2022/03/24 10:36:32;;;;;;;22.20;11.32;;;13.00;61.60;;;;;;4991311;28;20180;-84
2022/03/24 10:39:01;;;;;;;18.15;11.13;;;13.10;61.70;;;;;;4995578;28;20176;-83
2022/03/24 10:41:29;;;;;;;18.42;11.00;;;13.20;62.60;;;;;;4991159;28;20185;-83
2022/03/24 10:44:00;;;;;;;17.02;10.52;;;13.30;60.60;;;;;;4983646;28;20191;-83
2022/03/24 10:46:31;;;;;;;18.40;12.20;;;13.30;60.00;;;;;;4995810;28;20230;-82
2022/03/24 10:48:57;;;;;;;18.40;11.20;;;13.40;60.00;;;;;;4990785;28;20555;-83
2022/03/24 10:51:28;;;;;;;18.58;11.25;;;13.50;60.20;;;;;;4978581;28;20183;-83
2022/03/24 10:54:09;;;;;;;22.02;11.98;;;13.60;59.40;;;;;;4986498;28;20242;-83
2022/03/24 10:56:39;;;;;;;20.08;11.15;;;13.60;59.20;;;;;;4992067;28;20230;-83
2022/03/24 10:59:06;;;;;;;22.98;12.02;;;13.70;59.60;;;;;;4989352;28;20180;-83
2022/03/24 11:01:33;;;;;;;18.98;10.02;;;13.70;59.50;;;;;;4998422;28;20600;-83
2022/03/24 11:03:59;;;;;;;19.75;10.02;;;13.80;58.50;;;;;;4976793;28;20235;-83
2022/03/24 11:06:27;;;;;;;17.08;10.52;;;13.80;59.80;;;;;;4983403;28;20230;-83
2022/03/24 11:08:59;;;;;;;20.00;12.07;;;13.90;58.30;;;;;;4974762;28;20235;-83
2022/03/24 11:11:26;;;;;;;20.15;12.13;;;14.00;57.20;;;;;;4974165;28;20670;-83
2022/03/24 11:13:52;;;;;;;18.73;12.02;;;14.10;55.80;;;;;;4974729;28;20228;-83
2022/03/24 11:16:30;;;;;;;13.98;9.43;;;14.10;56.00;;;;;;4973852;28;20251;-83
2022/03/24 11:19:01;;;;;;;18.20;10.38;;;14.20;57.10;;;;;;4974116;28;20176;-83
2022/03/24 11:21:42;;;;;;;17.80;10.65;;;14.30;54.50;;;;;;4975104;28;20191;-83
2022/03/24 11:24:08;;;;;;;24.33;10.10;;;14.30;55.20;;;;;;4990114;28;20520;-84
2022/03/24 11:26:35;;;;;;;16.95;10.55;;;14.50;56.50;;;;;;4990597;28;20195;-83
2022/03/24 11:29:02;;;;;;;16.00;9.52;;;14.50;55.70;;;;;;4975741;28;20173;-83
2022/03/24 11:31:28;;;;;;;21.90;10.00;;;14.60;53.20;;;;;;4974532;28;20173;-83
2022/03/24 11:33:56;;;;;;;18.20;9.40;;;14.60;53.80;;;;;;4974465;28;20267;-83
2022/03/24 11:36:23;;;;;;;13.98;9.40;;;14.70;54.90;;;;;;4975674;28;20603;-84
2022/03/24 11:38:51;;;;;;;17.33;9.75;;;14.60;53.10;;;;;;4977916;28;20191;-84
2022/03/24 11:41:43;;;;;;;19.05;9.18;;;14.70;52.70;;;;;;4978067;28;20256;-83
2022/03/24 11:44:41;;;;;;;15.85;9.48;;;14.70;53.90;;;;;;4979633;28;20172;-83
2022/03/24 11:47:13;;;;;;;16.50;9.10;;;14.90;54.50;;;;;;4954989;29;20174;-83
2022/03/24 11:49:39;;;;;;;18.10;9.25;;;15.00;52.70;;;;;;4956303;29;20174;-83
2022/03/24 11:52:05;;;;;;;14.85;9.52;;;15.20;52.40;;;;;;4971431;28;20173;-84
2022/03/24 11:54:36;;;;;;;16.38;8.98;;;15.30;54.00;;;;;;4970859;28;20173;-83
2022/03/24 11:57:21;;;;;;;13.00;9.25;;;15.40;51.20;;;;;;4956245;29;20184;-83
2022/03/24 11:59:47;;;;;;;21.58;10.07;;;15.50;51.80;;;;;;4970685;28;20169;-83
2022/03/24 12:02:15;;;;;;;15.57;9.25;;;15.70;52.90;;;;;;4970478;28;20268;-84
2022/03/24 12:04:49;;;;;;;14.57;9.07;;;15.70;52.80;;;;;;4956150;29;20197;-84
2022/03/24 12:07:18;;;;;;;18.30;9.32;;;15.80;51.60;;;;;;4971035;28;20174;-84
2022/03/24 12:09:56;;;;;;;16.85;9.52;;;15.80;52.30;;;;;;4968449;28;20186;-83
2022/03/24 12:12:21;;;;;;;17.08;9.85;;;15.80;51.90;;;;;;4983204;28;20325;-83
2022/03/24 12:14:47;;;;;;;16.33;9.90;;;15.80;52.30;;;;;;4973878;28;20670;-83
2022/03/24 12:17:26;;;;;;;15.32;9.48;;;15.80;51.70;;;;;;4992687;28;20218;-83
2022/03/24 12:19:56;;;;;;;15.65;9.10;;;15.80;51.80;;;;;;4973971;28;20179;-83
2022/03/24 12:22:29;;;;;;;18.45;9.48;;;16.00;52.40;;;;;;4975235;28;20579;-83
2022/03/24 12:24:58;;;;;;;17.90;9.02;;;16.00;51.90;;;;;;4992731;28;20220;-83
2022/03/24 12:27:24;;;;;;;23.45;9.65;;;16.10;51.70;;;;;;4973817;28;20184;-84
2022/03/24 12:30:14;;;;;;;15.10;10.18;;;16.30;51.70;;;;;;4974295;28;20180;-83
2022/03/24 12:32:42;;;;;;;17.00;10.05;;;16.20;50.70;;;;;;4972324;28;20497;-83
2022/03/24 12:35:28;;;;;;;13.25;9.75;;;16.10;50.80;;;;;;4973900;28;20180;-83
2022/03/24 12:37:55;;;;;;;15.38;9.60;;;16.30;51.20;;;;;;4974712;28;20195;-83
2022/03/24 12:40:21;;;;;;;15.25;9.77;;;16.40;50.00;;;;;;4992304;28;20187;-83